sensor_id;sensor_type;location;lat;lon;timestamp;pressure;altitude;pressure_sealevel;temperature;humidity
11314;BME280;5712;48.858;9.206;2023-09-19T00:02:02;97737.25;;;18.07;100.00
11314;BME280;5712;48.858;9.206;2023-09-19T00:04:30;97743.25;;;18.01;100.00
11314;BME280;5712;48.858;9.206;2023-09-19T00:06:57;97741.03;;;17.97;100.00
11314;BME280;5712;48.858;9.206;2023-09-19T00:09:24;97742.53;;;17.91;100.00
11314;BME280;5712;48.858;9.206;2023-09-19T00:11:52;97750.03;;;17.88;100.00
11314;BME280;5712;48.858;9.206;2023-09-19T00:14:19;97755.88;;;17.83;100.00
11314;BME280;5712;48.858;9.206;2023-09-19T00:16:49;97755.00;;;17.83;100.00
11314;BME280;5712;48.858;9.206;2023-09-19T00:19:17;97764.88;;;17.82;100.00
11314;BME280;5712;48.858;9.206;2023-09-19T00:21:44;97768.38;;;17.83;100.00
11314;BME280;5712;48.858;9.206;2023-09-19T00:24:11;97775.25;;;17.85;100.00
11314;BME280;5712;48.858;9.206;2023-09-19T00:26:38;97765.84;;;17.81;100.00
11314;BME280;5712;48.858;9.206;2023-09-19T00:29:04;97769.53;;;17.80;100.00
11314;BME280;5712;48.858;9.206;2023-09-19T00:31:34;97782.09;;;17.80;100.00
11314;BME280;5712;48.858;9.206;2023-09-19T00:34:03;97788.88;;;17.74;100.00
11314;BME280;5712;48.858;9.206;2023-09-19T00:36:36;97783.34;;;17.68;100.00
11314;BME280;5712;48.858;9.206;2023-09-19T00:39:03;97781.13;;;17.63;100.00
11314;BME280;5712;48.858;9.206;2023-09-19T00:41:31;97784.81;;;17.62;100.00
11314;BME280;5712;48.858;9.206;2023-09-19T00:43:57;97786.81;;;17.60;100.00
11314;BME280;5712;48.858;9.206;2023-09-19T00:46:25;97791.00;;;17.63;100.00
11314;BME280;5712;48.858;9.206;2023-09-19T00:48:52;97783.13;;;17.61;100.00
11314;BME280;5712;48.858;9.206;2023-09-19T00:51:19;97793.81;;;17.61;100.00
11314;BME280;5712;48.858;9.206;2023-09-19T00:53:48;97794.44;;;17.55;100.00
11314;BME280;5712;48.858;9.206;2023-09-19T00:56:15;97799.50;;;17.58;100.00
11314;BME280;5712;48.858;9.206;2023-09-19T00:58:43;97790.78;;;17.56;100.00
11314;BME280;5712;48.858;9.206;2023-09-19T01:01:11;97805.13;;;17.55;100.00
11314;BME280;5712;48.858;9.206;2023-09-19T01:03:40;97801.31;;;17.58;100.00
11314;BME280;5712;48.858;9.206;2023-09-19T01:06:06;97796.13;;;17.56;100.00
11314;BME280;5712;48.858;9.206;2023-09-19T01:08:33;97803.47;;;17.54;100.00
11314;BME280;5712;48.858;9.206;2023-09-19T01:11:08;97807.50;;;17.58;100.00
11314;BME280;5712;48.858;9.206;2023-09-19T01:13:46;97807.13;;;17.53;100.00
11314;BME280;5712;48.858;9.206;2023-09-19T01:16:20;97800.31;;;17.59;100.00
11314;BME280;5712;48.858;9.206;2023-09-19T01:18:52;97810.63;;;17.54;100.00
11314;BME280;5712;48.858;9.206;2023-09-19T01:21:27;97813.47;;;17.52;100.00
11314;BME280;5712;48.858;9.206;2023-09-19T01:24:22;97805.75;;;17.49;100.00
11314;BME280;5712;48.858;9.206;2023-09-19T01:27:25;97816.59;;;17.48;100.00
11314;BME280;5712;48.858;9.206;2023-09-19T01:30:08;97820.97;;;17.49;100.00
11314;BME280;5712;48.858;9.206;2023-09-19T01:32:36;97815.78;;;17.47;100.00
11314;BME280;5712;48.858;9.206;2023-09-19T01:35:03;97831.44;;;17.42;100.00
11314;BME280;5712;48.858;9.206;2023-09-19T01:37:30;97823.28;;;17.44;100.00
11314;BME280;5712;48.858;9.206;2023-09-19T01:39:59;97820.75;;;17.42;100.00
11314;BME280;5712;48.858;9.206;2023-09-19T01:42:40;97833.72;;;17.37;100.00
11314;BME280;5712;48.858;9.206;2023-09-19T01:45:12;97823.03;;;17.37;100.00
11314;BME280;5712;48.858;9.206;2023-09-19T01:47:46;97833.31;;;17.32;100.00
11314;BME280;5712;48.858;9.206;2023-09-19T01:50:19;97825.78;;;17.28;100.00
11314;BME280;5712;48.858;9.206;2023-09-19T01:52:54;97823.09;;;17.28;100.00
11314;BME280;5712;48.858;9.206;2023-09-19T01:55:26;97825.63;;;17.29;100.00
11314;BME280;5712;48.858;9.206;2023-09-19T01:58:01;97826.53;;;17.20;100.00
11314;BME280;5712;48.858;9.206;2023-09-19T02:00:33;97843.19;;;17.14;100.00
11314;BME280;5712;48.858;9.206;2023-09-19T02:03:00;97844.16;;;17.13;100.00
11314;BME280;5712;48.858;9.206;2023-09-19T02:05:28;97852.78;;;17.07;100.00
11314;BME280;5712;48.858;9.206;2023-09-19T02:07:56;97855.94;;;17.03;100.00
11314;BME280;5712;48.858;9.206;2023-09-19T02:10:24;97860.75;;;16.99;100.00
11314;BME280;5712;48.858;9.206;2023-09-19T02:12:50;97859.69;;;16.92;100.00
11314;BME280;5712;48.858;9.206;2023-09-19T02:15:17;97859.00;;;16.90;100.00
11314;BME280;5712;48.858;9.206;2023-09-19T02:17:45;97865.38;;;16.80;100.00
11314;BME280;5712;48.858;9.206;2023-09-19T02:20:12;97853.41;;;16.66;100.00
11314;BME280;5712;48.858;9.206;2023-09-19T02:22:40;97854.28;;;16.57;100.00
11314;BME280;5712;48.858;9.206;2023-09-19T02:25:07;97862.22;;;16.49;100.00
11314;BME280;5712;48.858;9.206;2023-09-19T02:27:34;97866.47;;;16.42;100.00
11314;BME280;5712;48.858;9.206;2023-09-19T02:30:01;97876.69;;;16.37;100.00
11314;BME280;5712;48.858;9.206;2023-09-19T02:32:29;97866.03;;;16.37;100.00
11314;BME280;5712;48.858;9.206;2023-09-19T02:34:57;97852.69;;;16.37;100.00
11314;BME280;5712;48.858;9.206;2023-09-19T02:37:24;97869.28;;;16.31;100.00
11314;BME280;5712;48.858;9.206;2023-09-19T02:39:51;97868.59;;;16.29;100.00
11314;BME280;5712;48.858;9.206;2023-09-19T02:42:18;97868.59;;;16.29;100.00
11314;BME280;5712;48.858;9.206;2023-09-19T02:44:44;97877.44;;;16.30;100.00
11314;BME280;5712;48.858;9.206;2023-09-19T02:47:12;97874.63;;;16.31;100.00
11314;BME280;5712;48.858;9.206;2023-09-19T02:49:40;97875.31;;;16.33;100.00
11314;BME280;5712;48.858;9.206;2023-09-19T02:52:09;97879.38;;;16.37;100.00
11314;BME280;5712;48.858;9.206;2023-09-19T02:54:36;97880.34;;;16.46;100.00
11314;BME280;5712;48.858;9.206;2023-09-19T02:57:03;97874.94;;;16.55;100.00
11314;BME280;5712;48.858;9.206;2023-09-19T02:59:31;97883.72;;;16.65;100.00
11314;BME280;5712;48.858;9.206;2023-09-19T03:01:58;97881.97;;;16.74;100.00
11314;BME280;5712;48.858;9.206;2023-09-19T03:04:26;97887.84;;;16.77;100.00
11314;BME280;5712;48.858;9.206;2023-09-19T03:06:53;97880.56;;;16.79;100.00
11314;BME280;5712;48.858;9.206;2023-09-19T03:09:25;97884.22;;;16.78;100.00
11314;BME280;5712;48.858;9.206;2023-09-19T03:11:51;97881.91;;;16.83;100.00
11314;BME280;5712;48.858;9.206;2023-09-19T03:14:18;97887.25;;;16.83;100.00
11314;BME280;5712;48.858;9.206;2023-09-19T03:16:45;97883.63;;;16.84;100.00
11314;BME280;5712;48.858;9.206;2023-09-19T03:19:12;97884.44;;;16.85;100.00
11314;BME280;5712;48.858;9.206;2023-09-19T03:21:40;97886.66;;;16.89;100.00
11314;BME280;5712;48.858;9.206;2023-09-19T03:24:07;97892.84;;;16.90;100.00
11314;BME280;5712;48.858;9.206;2023-09-19T03:26:35;97890.19;;;16.90;100.00
11314;BME280;5712;48.858;9.206;2023-09-19T03:29:03;97890.84;;;16.92;100.00
11314;BME280;5712;48.858;9.206;2023-09-19T03:31:33;97884.84;;;16.90;100.00
11314;BME280;5712;48.858;9.206;2023-09-19T03:34:02;97889.31;;;16.89;100.00
11314;BME280;5712;48.858;9.206;2023-09-19T03:36:29;97891.72;;;16.92;100.00
11314;BME280;5712;48.858;9.206;2023-09-19T03:38:56;97889.03;;;16.92;100.00
11314;BME280;5712;48.858;9.206;2023-09-19T03:41:22;97896.19;;;16.92;100.00
11314;BME280;5712;48.858;9.206;2023-09-19T03:43:50;97898.31;;;16.88;100.00
11314;BME280;5712;48.858;9.206;2023-09-19T03:46:18;97903.53;;;16.90;100.00
11314;BME280;5712;48.858;9.206;2023-09-19T03:48:44;97901.91;;;16.79;100.00
11314;BME280;5712;48.858;9.206;2023-09-19T03:51:11;97909.59;;;16.65;100.00
11314;BME280;5712;48.858;9.206;2023-09-19T03:53:37;97901.91;;;16.52;100.00
11314;BME280;5712;48.858;9.206;2023-09-19T03:56:04;97909.81;;;16.44;100.00
11314;BME280;5712;48.858;9.206;2023-09-19T03:58:31;97901.28;;;16.41;100.00
11314;BME280;5712;48.858;9.206;2023-09-19T04:01:01;97906.75;;;16.30;100.00
11314;BME280;5712;48.858;9.206;2023-09-19T04:03:28;97904.69;;;16.24;100.00
11314;BME280;5712;48.858;9.206;2023-09-19T04:06:00;97894.31;;;16.21;100.00
11314;BME280;5712;48.858;9.206;2023-09-19T04:08:27;97904.13;;;16.20;100.00
11314;BME280;5712;48.858;9.206;2023-09-19T04:10:54;97907.94;;;16.18;100.00
11314;BME280;5712;48.858;9.206;2023-09-19T04:13:22;97913.41;;;16.16;100.00
11314;BME280;5712;48.858;9.206;2023-09-19T04:15:48;97901.38;;;16.13;100.00
11314;BME280;5712;48.858;9.206;2023-09-19T04:18:16;97903.63;;;16.08;100.00
11314;BME280;5712;48.858;9.206;2023-09-19T04:20:48;97905.59;;;16.06;100.00
11314;BME280;5712;48.858;9.206;2023-09-19T04:23:14;97911.22;;;16.02;100.00
11314;BME280;5712;48.858;9.206;2023-09-19T04:25:40;97903.34;;;16.01;100.00
11314;BME280;5712;48.858;9.206;2023-09-19T04:28:07;97915.84;;;16.01;100.00
11314;BME280;5712;48.858;9.206;2023-09-19T04:30:35;97913.19;;;16.01;100.00
11314;BME280;5712;48.858;9.206;2023-09-19T04:33:02;97914.88;;;16.02;100.00
11314;BME280;5712;48.858;9.206;2023-09-19T04:35:31;97916.53;;;16.02;100.00
11314;BME280;5712;48.858;9.206;2023-09-19T04:37:57;97914.44;;;15.97;100.00
11314;BME280;5712;48.858;9.206;2023-09-19T04:40:24;97915.44;;;15.96;100.00
11314;BME280;5712;48.858;9.206;2023-09-19T04:42:53;97918.78;;;15.98;100.00
11314;BME280;5712;48.858;9.206;2023-09-19T04:45:21;97918.13;;;15.96;100.00
11314;BME280;5712;48.858;9.206;2023-09-19T04:47:48;97924.13;;;15.98;100.00
11314;BME280;5712;48.858;9.206;2023-09-19T04:50:14;97929.03;;;16.02;100.00
11314;BME280;5712;48.858;9.206;2023-09-19T04:52:43;97921.19;;;16.01;100.00
11314;BME280;5712;48.858;9.206;2023-09-19T04:55:10;97930.88;;;16.02;100.00
11314;BME280;5712;48.858;9.206;2023-09-19T04:57:42;97936.06;;;16.03;100.00
11314;BME280;5712;48.858;9.206;2023-09-19T05:00:11;97949.94;;;16.07;100.00
11314;BME280;5712;48.858;9.206;2023-09-19T05:02:40;97948.41;;;16.04;100.00
11314;BME280;5712;48.858;9.206;2023-09-19T05:05:07;97951.63;;;16.08;100.00
11314;BME280;5712;48.858;9.206;2023-09-19T05:07:34;97958.94;;;16.06;100.00
11314;BME280;5712;48.858;9.206;2023-09-19T05:10:03;97952.19;;;16.02;100.00
11314;BME280;5712;48.858;9.206;2023-09-19T05:12:32;97956.41;;;16.04;100.00
11314;BME280;5712;48.858;9.206;2023-09-19T05:14:59;97953.00;;;16.02;100.00
11314;BME280;5712;48.858;9.206;2023-09-19T05:17:26;97957.53;;;16.02;100.00
11314;BME280;5712;48.858;9.206;2023-09-19T05:19:53;97960.31;;;16.00;100.00
11314;BME280;5712;48.858;9.206;2023-09-19T05:22:19;97958.34;;;16.02;100.00
11314;BME280;5712;48.858;9.206;2023-09-19T05:24:46;97962.56;;;16.04;100.00
11314;BME280;5712;48.858;9.206;2023-09-19T05:27:14;97973.22;;;16.04;100.00
11314;BME280;5712;48.858;9.206;2023-09-19T05:29:42;97973.22;;;16.04;100.00
11314;BME280;5712;48.858;9.206;2023-09-19T05:32:09;97982.19;;;16.13;100.00
11314;BME280;5712;48.858;9.206;2023-09-19T05:34:36;97984.59;;;16.07;100.00
11314;BME280;5712;48.858;9.206;2023-09-19T05:37:03;97986.72;;;16.03;100.00
11314;BME280;5712;48.858;9.206;2023-09-19T05:39:30;97985.31;;;15.99;100.00
11314;BME280;5712;48.858;9.206;2023-09-19T05:41:57;97995.53;;;16.03;100.00
11314;BME280;5712;48.858;9.206;2023-09-19T05:44:24;97988.94;;;16.08;100.00
11314;BME280;5712;48.858;9.206;2023-09-19T05:46:51;97992.31;;;16.00;100.00
11314;BME280;5712;48.858;9.206;2023-09-19T05:49:18;97999.75;;;15.97;100.00
11314;BME280;5712;48.858;9.206;2023-09-19T05:51:46;98000.75;;;15.96;100.00
11314;BME280;5712;48.858;9.206;2023-09-19T05:54:13;98007.06;;;15.95;100.00
11314;BME280;5712;48.858;9.206;2023-09-19T05:56:40;98007.06;;;15.95;100.00
11314;BME280;5712;48.858;9.206;2023-09-19T05:59:07;98010.97;;;15.91;100.00
11314;BME280;5712;48.858;9.206;2023-09-19T06:01:35;98026.56;;;15.86;100.00
11314;BME280;5712;48.858;9.206;2023-09-19T06:04:02;98016.75;;;15.77;100.00
11314;BME280;5712;48.858;9.206;2023-09-19T06:06:29;98032.44;;;15.70;100.00
11314;BME280;5712;48.858;9.206;2023-09-19T06:08:56;98028.66;;;15.54;100.00
11314;BME280;5712;48.858;9.206;2023-09-19T06:11:22;98033.69;;;15.38;100.00
11314;BME280;5712;48.858;9.206;2023-09-19T06:13:51;98029.63;;;15.34;100.00
11314;BME280;5712;48.858;9.206;2023-09-19T06:16:18;98032.94;;;15.26;100.00
11314;BME280;5712;48.858;9.206;2023-09-19T06:18:46;98037.00;;;15.21;100.00
11314;BME280;5712;48.858;9.206;2023-09-19T06:21:18;98024.25;;;15.24;100.00
11314;BME280;5712;48.858;9.206;2023-09-19T06:23:44;98033.91;;;15.25;100.00
11314;BME280;5712;48.858;9.206;2023-09-19T06:26:11;98036.16;;;15.30;100.00
11314;BME280;5712;48.858;9.206;2023-09-19T06:28:38;98034.66;;;15.37;100.00
11314;BME280;5712;48.858;9.206;2023-09-19T06:31:05;98036.06;;;15.41;100.00
11314;BME280;5712;48.858;9.206;2023-09-19T06:33:35;98027.41;;;15.39;100.00
11314;BME280;5712;48.858;9.206;2023-09-19T06:36:05;98040.16;;;15.45;100.00
11314;BME280;5712;48.858;9.206;2023-09-19T06:38:32;98032.44;;;15.51;100.00
11314;BME280;5712;48.858;9.206;2023-09-19T06:41:00;98037.63;;;15.53;100.00
11314;BME280;5712;48.858;9.206;2023-09-19T06:43:30;98041.97;;;15.54;100.00
11314;BME280;5712;48.858;9.206;2023-09-19T06:45:57;98043.41;;;15.58;100.00
11314;BME280;5712;48.858;9.206;2023-09-19T06:48:25;98050.09;;;15.62;100.00
11314;BME280;5712;48.858;9.206;2023-09-19T06:50:53;98053.63;;;15.72;100.00
11314;BME280;5712;48.858;9.206;2023-09-19T06:53:21;98052.09;;;15.79;100.00
11314;BME280;5712;48.858;9.206;2023-09-19T06:55:49;98051.53;;;15.85;100.00
11314;BME280;5712;48.858;9.206;2023-09-19T06:58:15;98047.31;;;15.92;100.00
11314;BME280;5712;48.858;9.206;2023-09-19T07:00:42;98051.50;;;16.03;100.00
11314;BME280;5712;48.858;9.206;2023-09-19T07:03:09;98054.03;;;16.14;100.00
11314;BME280;5712;48.858;9.206;2023-09-19T07:05:37;98056.81;;;16.22;100.00
11314;BME280;5712;48.858;9.206;2023-09-19T07:08:05;98066.91;;;16.28;100.00
11314;BME280;5712;48.858;9.206;2023-09-19T07:10:33;98072.41;;;16.36;100.00
11314;BME280;5712;48.858;9.206;2023-09-19T07:13:01;98079.00;;;16.42;100.00
11314;BME280;5712;48.858;9.206;2023-09-19T07:15:30;98080.41;;;16.46;100.00
11314;BME280;5712;48.858;9.206;2023-09-19T07:18:01;98087.97;;;16.50;100.00
11314;BME280;5712;48.858;9.206;2023-09-19T07:20:27;98089.38;;;16.54;100.00
11314;BME280;5712;48.858;9.206;2023-09-19T07:22:56;98093.31;;;16.50;100.00
11314;BME280;5712;48.858;9.206;2023-09-19T07:25:24;98091.22;;;16.54;100.00
11314;BME280;5712;48.858;9.206;2023-09-19T07:27:54;98091.75;;;16.57;100.00
11314;BME280;5712;48.858;9.206;2023-09-19T07:30:21;98096.66;;;16.62;100.00
11314;BME280;5712;48.858;9.206;2023-09-19T07:32:48;98102.53;;;16.65;100.00
11314;BME280;5712;48.858;9.206;2023-09-19T07:35:15;98103.09;;;16.69;100.00
11314;BME280;5712;48.858;9.206;2023-09-19T07:37:41;98101.16;;;16.71;100.00
11314;BME280;5712;48.858;9.206;2023-09-19T07:40:09;98110.38;;;16.76;100.00
11314;BME280;5712;48.858;9.206;2023-09-19T07:42:36;98112.63;;;16.81;100.00
11314;BME280;5712;48.858;9.206;2023-09-19T07:45:08;98110.91;;;16.89;100.00
11314;BME280;5712;48.858;9.206;2023-09-19T07:47:34;98113.41;;;17.00;100.00
11314;BME280;5712;48.858;9.206;2023-09-19T07:50:01;98107.91;;;17.02;100.00
11314;BME280;5712;48.858;9.206;2023-09-19T07:52:28;98111.41;;;17.02;100.00
11314;BME280;5712;48.858;9.206;2023-09-19T07:54:54;98111.13;;;17.05;100.00
11314;BME280;5712;48.858;9.206;2023-09-19T07:57:22;98122.50;;;17.07;100.00
11314;BME280;5712;48.858;9.206;2023-09-19T07:59:50;98119.56;;;17.10;100.00
11314;BME280;5712;48.858;9.206;2023-09-19T08:02:17;98127.16;;;17.05;100.00
11314;BME280;5712;48.858;9.206;2023-09-19T08:04:44;98130.50;;;17.07;100.00
11314;BME280;5712;48.858;9.206;2023-09-19T08:07:12;98132.78;;;17.02;100.00
11314;BME280;5712;48.858;9.206;2023-09-19T08:09:41;98135.59;;;17.10;100.00
11314;BME280;5712;48.858;9.206;2023-09-19T08:12:11;98141.72;;;17.20;100.00
11314;BME280;5712;48.858;9.206;2023-09-19T08:14:38;98142.25;;;17.33;100.00
11314;BME280;5712;48.858;9.206;2023-09-19T08:17:06;98139.38;;;17.44;100.00
11314;BME280;5712;48.858;9.206;2023-09-19T08:19:35;98131.66;;;17.68;100.00
11314;BME280;5712;48.858;9.206;2023-09-19T08:22:05;98127.97;;;17.69;100.00
11314;BME280;5712;48.858;9.206;2023-09-19T08:24:35;98128.25;;;17.76;100.00
11314;BME280;5712;48.858;9.206;2023-09-19T08:27:04;98136.59;;;17.90;100.00
11314;BME280;5712;48.858;9.206;2023-09-19T08:29:31;98128.63;;;17.98;100.00
11314;BME280;5712;48.858;9.206;2023-09-19T08:31:58;98123.06;;;18.09;100.00
11314;BME280;5712;48.858;9.206;2023-09-19T08:34:25;98125.19;;;18.23;100.00
11314;BME280;5712;48.858;9.206;2023-09-19T08:36:54;98115.97;;;18.35;100.00
11314;BME280;5712;48.858;9.206;2023-09-19T08:39:21;98117.03;;;18.42;100.00
11314;BME280;5712;48.858;9.206;2023-09-19T08:41:48;98129.03;;;18.56;100.00
11314;BME280;5712;48.858;9.206;2023-09-19T08:44:15;98136.28;;;18.63;100.00
11314;BME280;5712;48.858;9.206;2023-09-19T08:46:43;98136.94;;;18.83;100.00
11314;BME280;5712;48.858;9.206;2023-09-19T08:49:16;98129.47;;;18.94;100.00
11314;BME280;5712;48.858;9.206;2023-09-19T08:51:59;98134.69;;;18.96;97.94
11314;BME280;5712;48.858;9.206;2023-09-19T08:54:32;98135.25;;;19.07;98.86
11314;BME280;5712;48.858;9.206;2023-09-19T08:57:06;98133.72;;;19.22;97.53
11314;BME280;5712;48.858;9.206;2023-09-19T08:59:37;98122.28;;;19.20;94.89
11314;BME280;5712;48.858;9.206;2023-09-19T09:02:09;98118.69;;;19.12;92.91
11314;BME280;5712;48.858;9.206;2023-09-19T09:04:38;98113.44;;;19.02;90.97
11314;BME280;5712;48.858;9.206;2023-09-19T09:07:10;98106.16;;;18.87;87.82
11314;BME280;5712;48.858;9.206;2023-09-19T09:09:45;98129.78;;;18.91;89.11
11314;BME280;5712;48.858;9.206;2023-09-19T09:12:13;98114.44;;;19.01;85.84
11314;BME280;5712;48.858;9.206;2023-09-19T09:14:40;98120.84;;;19.08;87.33
11314;BME280;5712;48.858;9.206;2023-09-19T09:17:10;98114.13;;;19.30;85.92
11314;BME280;5712;48.858;9.206;2023-09-19T09:19:37;98110.00;;;19.43;82.47
11314;BME280;5712;48.858;9.206;2023-09-19T09:22:07;98119.44;;;19.63;83.00
11314;BME280;5712;48.858;9.206;2023-09-19T09:24:34;98108.63;;;19.81;80.09
11314;BME280;5712;48.858;9.206;2023-09-19T09:27:05;98113.34;;;20.03;79.31
11314;BME280;5712;48.858;9.206;2023-09-19T09:29:44;98104.72;;;20.17;79.32
11314;BME280;5712;48.858;9.206;2023-09-19T09:32:19;98078.03;;;20.23;72.78
11314;BME280;5712;48.858;9.206;2023-09-19T09:34:49;98091.44;;;20.31;73.50
11314;BME280;5712;48.858;9.206;2023-09-19T09:37:16;98098.16;;;20.35;74.34
11314;BME280;5712;48.858;9.206;2023-09-19T09:39:49;98099.50;;;20.39;75.49
11314;BME280;5712;48.858;9.206;2023-09-19T09:42:30;98098.84;;;20.53;73.99
11314;BME280;5712;48.858;9.206;2023-09-19T09:45:16;98095.97;;;20.63;73.05
11314;BME280;5712;48.858;9.206;2023-09-19T09:47:44;98102.50;;;20.76;72.96
11314;BME280;5712;48.858;9.206;2023-09-19T09:50:27;98085.69;;;20.98;71.97
11314;BME280;5712;48.858;9.206;2023-09-19T09:53:07;98084.69;;;21.07;70.12
11314;BME280;5712;48.858;9.206;2023-09-19T09:56:03;98083.13;;;21.13;68.25
11314;BME280;5712;48.858;9.206;2023-09-19T09:58:33;98081.75;;;21.25;69.75
11314;BME280;5712;48.858;9.206;2023-09-19T10:01:01;98069.97;;;21.34;66.38
11314;BME280;5712;48.858;9.206;2023-09-19T10:03:34;98062.44;;;21.29;64.86
11314;BME280;5712;48.858;9.206;2023-09-19T10:06:06;98072.66;;;21.26;65.85
11314;BME280;5712;48.858;9.206;2023-09-19T10:09:00;98067.53;;;21.08;64.91
11314;BME280;5712;48.858;9.206;2023-09-19T10:11:30;98042.72;;;20.82;60.05
11314;BME280;5712;48.858;9.206;2023-09-19T10:14:00;98042.22;;;20.79;61.64
11314;BME280;5712;48.858;9.206;2023-09-19T10:16:32;98053.47;;;20.82;62.92
11314;BME280;5712;48.858;9.206;2023-09-19T10:19:02;98054.50;;;20.89;63.63
11314;BME280;5712;48.858;9.206;2023-09-19T10:21:31;98038.38;;;20.89;61.37
11314;BME280;5712;48.858;9.206;2023-09-19T10:23:58;98028.28;;;20.83;60.45
11314;BME280;5712;48.858;9.206;2023-09-19T10:26:26;98035.97;;;20.86;61.25
11314;BME280;5712;48.858;9.206;2023-09-19T10:28:58;98045.59;;;20.97;61.98
11314;BME280;5712;48.858;9.206;2023-09-19T10:31:27;98042.38;;;21.01;61.03
11314;BME280;5712;48.858;9.206;2023-09-19T10:33:55;98034.75;;;21.13;61.22
11314;BME280;5712;48.858;9.206;2023-09-19T10:36:24;98033.94;;;21.12;59.90
11314;BME280;5712;48.858;9.206;2023-09-19T10:38:53;98039.31;;;21.12;60.21
11314;BME280;5712;48.858;9.206;2023-09-19T10:41:21;98042.44;;;21.24;61.39
11314;BME280;5712;48.858;9.206;2023-09-19T10:43:48;98053.66;;;21.35;60.86
11314;BME280;5712;48.858;9.206;2023-09-19T10:46:16;98062.34;;;21.45;62.36
11314;BME280;5712;48.858;9.206;2023-09-19T10:48:43;98053.34;;;21.69;60.99
11314;BME280;5712;48.858;9.206;2023-09-19T10:51:16;98044.84;;;21.88;59.95
11314;BME280;5712;48.858;9.206;2023-09-19T10:53:50;98035.13;;;22.01;58.71
11314;BME280;5712;48.858;9.206;2023-09-19T10:56:23;98045.25;;;21.99;58.24
11314;BME280;5712;48.858;9.206;2023-09-19T10:59:05;98029.16;;;21.91;57.54
11314;BME280;5712;48.858;9.206;2023-09-19T11:01:42;98042.00;;;21.81;58.58
11314;BME280;5712;48.858;9.206;2023-09-19T11:04:25;98035.19;;;21.71;59.31
11314;BME280;5712;48.858;9.206;2023-09-19T11:07:03;98035.00;;;21.64;58.83
11314;BME280;5712;48.858;9.206;2023-09-19T11:09:44;98023.81;;;21.83;58.37
11314;BME280;5712;48.858;9.206;2023-09-19T11:12:12;98022.50;;;22.02;57.92
11314;BME280;5712;48.858;9.206;2023-09-19T11:14:40;98019.31;;;22.21;57.51
11314;BME280;5712;48.858;9.206;2023-09-19T11:17:33;97997.78;;;22.21;54.30
11314;BME280;5712;48.858;9.206;2023-09-19T11:20:19;98006.78;;;22.50;54.20
11314;BME280;5712;48.858;9.206;2023-09-19T11:23:19;98029.78;;;22.61;53.50
11314;BME280;5712;48.858;9.206;2023-09-19T11:25:50;98023.19;;;22.78;52.48
11314;BME280;5712;48.858;9.206;2023-09-19T11:28:31;98022.53;;;22.76;52.30
11314;BME280;5712;48.858;9.206;2023-09-19T11:30:57;98027.06;;;22.46;51.93
11314;BME280;5712;48.858;9.206;2023-09-19T11:33:26;98051.81;;;22.19;56.16
11314;BME280;5712;48.858;9.206;2023-09-19T11:35:59;98047.63;;;21.94;57.33
11314;BME280;5712;48.858;9.206;2023-09-19T11:38:58;98050.38;;;21.86;58.68
11314;BME280;5712;48.858;9.206;2023-09-19T11:41:37;98054.25;;;21.84;59.21
11314;BME280;5712;48.858;9.206;2023-09-19T11:44:32;98042.72;;;21.75;58.24
11314;BME280;5712;48.858;9.206;2023-09-19T11:47:04;98033.69;;;21.68;57.51
11314;BME280;5712;48.858;9.206;2023-09-19T11:49:33;98038.09;;;21.53;58.50
11314;BME280;5712;48.858;9.206;2023-09-19T11:52:03;98056.84;;;21.39;60.56
11314;BME280;5712;48.858;9.206;2023-09-19T11:54:32;98048.31;;;21.27;60.77
11314;BME280;5712;48.858;9.206;2023-09-19T11:56:59;98036.16;;;21.39;60.24
11314;BME280;5712;48.858;9.206;2023-09-19T11:59:29;98059.13;;;21.50;61.48
11314;BME280;5712;48.858;9.206;2023-09-19T12:01:58;98046.47;;;21.58;62.17
11314;BME280;5712;48.858;9.206;2023-09-19T12:04:35;98033.69;;;21.68;59.22
11314;BME280;5712;48.858;9.206;2023-09-19T12:07:04;98042.38;;;21.78;59.51
11314;BME280;5712;48.858;9.206;2023-09-19T12:09:35;98019.59;;;21.89;57.41
11314;BME280;5712;48.858;9.206;2023-09-19T12:12:02;98028.13;;;21.70;58.96
11314;BME280;5712;48.858;9.206;2023-09-19T12:14:29;98012.84;;;21.62;58.32
11314;BME280;5712;48.858;9.206;2023-09-19T12:16:57;98011.41;;;21.52;58.61
11314;BME280;5712;48.858;9.206;2023-09-19T12:19:26;98019.63;;;21.50;59.19
11314;BME280;5712;48.858;9.206;2023-09-19T12:21:56;98017.28;;;21.47;58.55
11314;BME280;5712;48.858;9.206;2023-09-19T12:24:25;98018.00;;;21.41;58.93
11314;BME280;5712;48.858;9.206;2023-09-19T12:26:52;98012.34;;;21.28;57.67
11314;BME280;5712;48.858;9.206;2023-09-19T12:29:20;98021.16;;;21.14;59.66
11314;BME280;5712;48.858;9.206;2023-09-19T12:31:51;98017.44;;;21.23;60.52
11314;BME280;5712;48.858;9.206;2023-09-19T12:34:24;98015.59;;;21.46;60.38
11314;BME280;5712;48.858;9.206;2023-09-19T12:37:13;97981.47;;;21.77;54.95
11314;BME280;5712;48.858;9.206;2023-09-19T12:39:42;97986.28;;;21.90;54.50
11314;BME280;5712;48.858;9.206;2023-09-19T12:42:10;97994.66;;;21.95;55.59
11314;BME280;5712;48.858;9.206;2023-09-19T12:44:40;97977.97;;;21.99;54.69
11314;BME280;5712;48.858;9.206;2023-09-19T12:47:12;97980.66;;;21.99;55.16
11314;BME280;5712;48.858;9.206;2023-09-19T12:50:05;97982.09;;;21.87;54.55
11314;BME280;5712;48.858;9.206;2023-09-19T12:52:37;97974.38;;;21.84;54.48
11314;BME280;5712;48.858;9.206;2023-09-19T12:55:05;97983.44;;;21.83;55.34
11314;BME280;5712;48.858;9.206;2023-09-19T12:57:33;97991.41;;;21.99;55.86
11314;BME280;5712;48.858;9.206;2023-09-19T13:00:00;97970.09;;;22.12;53.84
11314;BME280;5712;48.858;9.206;2023-09-19T13:02:27;97960.78;;;22.00;52.56
11314;BME280;5712;48.858;9.206;2023-09-19T13:04:54;97965.94;;;21.87;53.35
11314;BME280;5712;48.858;9.206;2023-09-19T13:07:43;97959.84;;;21.93;53.12
11314;BME280;5712;48.858;9.206;2023-09-19T13:10:11;97962.84;;;21.76;53.89
11314;BME280;5712;48.858;9.206;2023-09-19T13:12:42;97959.88;;;21.63;53.46
11314;BME280;5712;48.858;9.206;2023-09-19T13:15:14;97976.19;;;21.61;54.32
11314;BME280;5712;48.858;9.206;2023-09-19T13:17:46;97967.97;;;21.85;53.55
11314;BME280;5712;48.858;9.206;2023-09-19T13:20:23;97956.19;;;21.86;52.16